createdAt,value
2023-01-22T00:00:11.857Z,43.80
2023-01-22T00:02:38.741Z,48.22
2023-01-22T00:05:06.686Z,55.90
2023-01-22T00:07:33.565Z,41.55
2023-01-22T00:10:00.437Z,42.38
2023-01-22T00:12:27.686Z,44.67
2023-01-22T00:14:54.601Z,49.05
2023-01-22T00:17:21.502Z,38.03
2023-01-22T00:19:48.300Z,64.82
2023-01-22T00:22:15.431Z,43.22
2023-01-22T00:24:42.258Z,51.92
2023-01-22T00:27:09.382Z,44.35
2023-01-22T00:29:36.128Z,41.42
2023-01-22T00:32:03.001Z,37.13
2023-01-22T00:34:30.145Z,37.13
2023-01-22T00:36:56.920Z,36.33
2023-01-22T00:39:23.712Z,36.80
2023-01-22T00:41:50.531Z,34.83
2023-01-22T00:44:17.332Z,34.75
2023-01-22T00:46:44.138Z,35.22
2023-01-22T00:49:12.435Z,30.33
2023-01-22T00:51:39.672Z,39.90
2023-01-22T00:54:06.929Z,34.78
2023-01-22T00:56:34.087Z,40.67
2023-01-22T00:59:00.910Z,36.33
2023-01-22T01:01:27.754Z,37.70
2023-01-22T01:03:54.534Z,38.38
2023-01-22T01:06:22.335Z,42.13
2023-01-22T01:08:50.313Z,39.63
2023-01-22T01:11:25.207Z,46.42
2023-01-22T01:13:52.798Z,33.50
2023-01-22T01:16:22.452Z,49.50
2023-01-22T01:18:49.690Z,36.85
2023-01-22T01:21:18.034Z,42.95
2023-01-22T01:23:45.856Z,43.53
2023-01-22T01:26:14.748Z,33.83
2023-01-22T01:28:42.516Z,38.17
2023-01-22T01:31:12.580Z,37.17
2023-01-22T01:33:40.391Z,32.35
2023-01-22T01:36:11.379Z,49.72
2023-01-22T01:38:38.201Z,42.25
2023-01-22T01:41:06.260Z,34.10
2023-01-22T01:43:34.359Z,33.60
2023-01-22T01:46:04.288Z,37.63
2023-01-22T01:48:39.040Z,31.90
2023-01-22T01:51:16.330Z,31.70
2023-01-22T01:53:45.536Z,29.65
2023-01-22T01:56:17.231Z,32.92
2023-01-22T01:58:46.120Z,30.55
2023-01-22T02:01:17.018Z,32.22
2023-01-22T02:03:45.986Z,29.13
2023-01-22T02:06:15.442Z,29.73
2023-01-22T02:08:45.572Z,28.65
2023-01-22T02:11:12.668Z,29.00
2023-01-22T02:13:44.323Z,31.83
2023-01-22T02:16:11.961Z,28.30
2023-01-22T02:18:39.005Z,30.15
2023-01-22T02:21:28.706Z,30.05
2023-01-22T02:23:55.671Z,29.00
2023-01-22T02:26:22.411Z,29.45
2023-01-22T02:28:49.300Z,28.95
2023-01-22T02:31:16.090Z,26.88
2023-01-22T02:33:42.891Z,25.65
2023-01-22T02:36:09.739Z,27.98
2023-01-22T02:38:36.498Z,30.92
2023-01-22T02:41:03.389Z,27.98
2023-01-22T02:43:30.163Z,27.92
2023-01-22T02:45:56.935Z,29.80
2023-01-22T02:48:23.712Z,25.05
2023-01-22T02:50:50.497Z,26.35
2023-01-22T02:53:17.278Z,27.25
2023-01-22T02:55:46.214Z,25.42
2023-01-22T02:58:13.170Z,24.67
2023-01-22T03:00:40.058Z,26.02
2023-01-22T03:03:07.830Z,26.33
2023-01-22T03:05:35.414Z,26.65
2023-01-22T03:08:02.349Z,22.55
2023-01-22T03:10:29.075Z,25.25
2023-01-22T03:13:14.341Z,26.75
2023-01-22T03:15:59.991Z,25.33
2023-01-22T03:18:45.217Z,23.77
2023-01-22T03:21:15.894Z,22.48
2023-01-22T03:23:53.912Z,22.63
2023-01-22T03:26:23.390Z,23.52
2023-01-22T03:28:51.289Z,24.38
2023-01-22T03:31:18.322Z,24.23
2023-01-22T03:33:45.153Z,23.48
2023-01-22T03:36:14.403Z,23.77
2023-01-22T03:38:41.414Z,24.52
2023-01-22T03:41:12.489Z,24.42
2023-01-22T03:43:39.453Z,23.23
2023-01-22T03:46:15.338Z,20.98
2023-01-22T03:51:16.715Z,20.23
2023-01-22T03:53:44.729Z,22.13
2023-01-22T03:56:14.752Z,20.15
2023-01-22T03:58:41.535Z,20.25
2023-01-22T04:01:12.058Z,19.95
2023-01-22T04:03:39.340Z,19.02
2023-01-22T04:06:09.057Z,19.30
2023-01-22T04:08:36.698Z,18.77
2023-01-22T04:11:04.300Z,17.73
2023-01-22T04:13:32.398Z,17.85
2023-01-22T04:15:59.280Z,18.58
2023-01-22T04:18:26.306Z,18.00
2023-01-22T04:20:53.621Z,18.10
2023-01-22T04:23:22.005Z,18.15
2023-01-22T04:25:48.861Z,15.70
2023-01-22T04:28:16.658Z,18.13
2023-01-22T04:30:45.598Z,17.20
2023-01-22T04:33:13.118Z,17.02
2023-01-22T04:35:40.132Z,15.82
2023-01-22T04:38:08.003Z,16.38
2023-01-22T04:40:34.813Z,16.20
2023-01-22T04:43:05.923Z,17.13
2023-01-22T04:45:32.759Z,17.33
2023-01-22T04:48:00.218Z,15.73
2023-01-22T04:50:30.366Z,16.02
2023-01-22T04:52:57.849Z,16.40
2023-01-22T04:55:25.941Z,15.07
2023-01-22T04:57:57.245Z,15.77
2023-01-22T05:00:24.885Z,16.63
2023-01-22T05:02:56.599Z,16.52
2023-01-22T05:05:23.623Z,14.73
2023-01-22T05:07:50.420Z,15.50
2023-01-22T05:10:17.621Z,16.45
2023-01-22T05:12:44.522Z,17.38
2023-01-22T05:15:23.234Z,17.10
2023-01-22T05:17:51.829Z,15.88
2023-01-22T05:20:18.985Z,15.80
2023-01-22T05:22:46.214Z,16.25
2023-01-22T05:25:13.129Z,17.02
2023-01-22T05:27:39.943Z,17.02
2023-01-22T05:30:07.544Z,17.05
2023-01-22T05:32:34.371Z,17.30
2023-01-22T05:35:01.663Z,17.27
2023-01-22T05:37:28.560Z,18.50
2023-01-22T05:39:55.318Z,17.83
2023-01-22T05:42:22.161Z,18.95
2023-01-22T05:44:49.103Z,18.85
2023-01-22T05:47:16.467Z,17.58
2023-01-22T05:49:43.238Z,17.05
2023-01-22T05:52:12.776Z,18.02
2023-01-22T05:54:39.939Z,16.60
2023-01-22T05:57:07.021Z,15.07
2023-01-22T05:59:33.922Z,16.65
2023-01-22T06:02:01.279Z,17.02
2023-01-22T06:04:28.247Z,16.02
2023-01-22T06:06:55.006Z,16.00
2023-01-22T06:09:21.935Z,16.17
2023-01-22T06:11:48.774Z,13.82
2023-01-22T06:14:15.590Z,14.82
2023-01-22T06:16:42.495Z,14.48
2023-01-22T06:19:09.554Z,14.68
2023-01-22T06:21:36.361Z,14.63
2023-01-22T06:24:03.208Z,15.13
2023-01-22T06:26:29.942Z,15.05
2023-01-22T06:28:56.770Z,14.73
2023-01-22T06:31:23.699Z,14.18
2023-01-22T06:33:50.551Z,16.05
2023-01-22T06:36:17.321Z,14.82
2023-01-22T06:38:44.099Z,15.48
2023-01-22T06:41:11.063Z,15.85
2023-01-22T06:43:37.875Z,16.35
2023-01-22T06:46:05.442Z,16.55
2023-01-22T06:48:32.648Z,17.80
2023-01-22T06:51:00.365Z,17.65
2023-01-22T06:53:27.611Z,17.38
2023-01-22T06:55:54.657Z,17.67
2023-01-22T06:58:21.605Z,18.65
2023-01-22T07:00:48.455Z,18.27
2023-01-22T07:03:15.999Z,19.77
2023-01-22T07:05:42.888Z,20.20
2023-01-22T07:08:15.186Z,20.00
2023-01-22T07:10:42.537Z,20.65
2023-01-22T07:13:10.284Z,19.90
2023-01-22T07:15:37.214Z,20.08
2023-01-22T07:18:04.107Z,20.73
2023-01-22T07:20:30.880Z,19.08
2023-01-22T07:23:00.180Z,19.77
2023-01-22T07:25:27.998Z,20.55
2023-01-22T07:28:02.747Z,19.85
2023-01-22T07:30:30.039Z,17.08
2023-01-22T07:33:03.051Z,20.42
2023-01-22T07:35:30.438Z,17.38
2023-01-22T07:37:59.964Z,18.77
2023-01-22T07:40:27.442Z,18.77
2023-01-22T07:42:55.681Z,18.50
2023-01-22T07:45:24.663Z,17.90
2023-01-22T07:47:54.614Z,21.38
2023-01-22T07:50:22.532Z,19.88
2023-01-22T07:52:49.572Z,20.05
2023-01-22T07:55:16.790Z,20.73
2023-01-22T07:57:43.614Z,21.38
2023-01-22T08:00:11.463Z,22.10
2023-01-22T08:02:38.750Z,22.38
2023-01-22T08:05:12.501Z,23.80
2023-01-22T08:07:39.282Z,23.33
2023-01-22T08:10:06.565Z,25.88
2023-01-22T08:12:33.437Z,31.88
2023-01-22T08:15:00.143Z,31.50
2023-01-22T08:17:26.947Z,38.65
2023-01-22T08:19:53.717Z,40.03
2023-01-22T08:22:20.752Z,44.65
2023-01-22T08:24:47.508Z,44.22
2023-01-22T08:27:14.322Z,42.97
2023-01-22T08:29:41.131Z,41.33
2023-01-22T08:32:07.981Z,46.05
2023-01-22T08:34:34.790Z,44.10
2023-01-22T08:37:01.601Z,45.25
2023-01-22T08:39:28.412Z,43.72
2023-01-22T08:41:57.737Z,43.20
2023-01-22T08:44:25.389Z,37.95
2023-01-22T08:46:52.388Z,42.45
2023-01-22T08:49:21.421Z,39.20
2023-01-22T08:51:50.362Z,37.72
2023-01-22T08:54:18.462Z,39.05
2023-01-22T08:56:45.221Z,36.90
2023-01-22T08:59:12.036Z,41.70
2023-01-22T09:01:38.769Z,38.75
2023-01-22T09:04:09.758Z,40.92
2023-01-22T09:06:38.194Z,36.78
2023-01-22T09:09:06.220Z,38.35
2023-01-22T09:11:33.386Z,35.65
2023-01-22T09:14:00.394Z,32.38
2023-01-22T09:16:28.194Z,27.33
2023-01-22T09:18:55.059Z,24.38
2023-01-22T09:21:21.883Z,27.65
2023-01-22T09:23:48.681Z,27.15
2023-01-22T09:26:15.712Z,25.70
2023-01-22T09:28:42.652Z,28.17
2023-01-22T09:31:13.281Z,26.30
2023-01-22T09:33:40.181Z,22.95
2023-01-22T09:36:15.019Z,23.88
2023-01-22T09:38:43.208Z,26.10
2023-01-22T09:41:34.187Z,24.98
2023-01-22T09:44:18.601Z,27.05
2023-01-22T09:47:01.284Z,26.15
2023-01-22T09:49:42.268Z,21.77
2023-01-22T09:52:11.048Z,24.20
2023-01-22T09:54:38.246Z,26.52
2023-01-22T09:57:07.328Z,22.35
2023-01-22T09:59:45.825Z,27.88
2023-01-22T10:02:21.633Z,25.73
2023-01-22T10:04:52.941Z,23.75
2023-01-22T10:07:49.201Z,25.70
2023-01-22T10:10:22.221Z,28.02
2023-01-22T10:12:55.963Z,26.27
2023-01-22T10:15:24.444Z,25.80
2023-01-22T10:17:54.109Z,24.65
2023-01-22T10:20:21.764Z,24.63
2023-01-22T10:22:51.562Z,21.95
2023-01-22T10:25:18.540Z,23.83
2023-01-22T10:27:46.967Z,25.10
2023-01-22T10:30:22.702Z,21.75
2023-01-22T10:33:00.227Z,25.33
2023-01-22T10:35:27.171Z,26.80
2023-01-22T10:37:55.967Z,31.40
2023-01-22T10:40:30.999Z,39.15
2023-01-22T10:43:03.325Z,36.33
2023-01-22T10:45:30.528Z,36.95
2023-01-22T10:48:16.710Z,37.33
2023-01-22T10:50:45.286Z,39.50
2023-01-22T10:53:30.170Z,37.65
2023-01-22T10:55:59.349Z,40.22
2023-01-22T10:58:33.228Z,38.10
2023-01-22T11:01:05.548Z,43.13
2023-01-22T11:03:38.182Z,42.45
2023-01-22T11:06:12.900Z,39.35
2023-01-22T11:08:56.535Z,40.83
2023-01-22T11:12:15.743Z,37.22
2023-01-22T11:14:42.988Z,32.90
2023-01-22T11:17:29.488Z,30.55
2023-01-22T11:23:06.992Z,22.50
2023-01-22T11:25:43.868Z,25.05
2023-01-22T11:28:44.112Z,27.75
2023-01-22T11:31:37.357Z,27.58
2023-01-22T11:34:10.262Z,25.38
2023-01-22T11:36:40.477Z,22.52
2023-01-22T11:39:45.752Z,16.25
2023-01-22T11:42:33.580Z,20.70
2023-01-22T11:45:23.199Z,20.33
2023-01-22T11:48:12.277Z,20.65
2023-01-22T11:50:59.186Z,24.13
2023-01-22T11:53:54.459Z,29.70
2023-01-22T11:56:39.299Z,30.80
2023-01-22T11:59:26.412Z,25.80
2023-01-22T12:02:24.470Z,27.90
2023-01-22T12:04:57.315Z,25.98
2023-01-22T12:07:26.985Z,24.52
2023-01-22T12:10:27.503Z,23.40
2023-01-22T12:13:23.507Z,26.40
2023-01-22T12:15:59.256Z,25.93
2023-01-22T12:18:48.014Z,19.40
2023-01-22T12:22:08.351Z,19.05
2023-01-22T12:24:44.666Z,18.40
2023-01-22T12:27:29.249Z,16.77
2023-01-22T12:30:30.122Z,16.80
2023-01-22T12:33:02.252Z,20.73
2023-01-22T12:35:31.668Z,17.88
2023-01-22T12:38:48.523Z,17.58
2023-01-22T12:41:46.774Z,17.92
2023-01-22T12:44:37.807Z,17.30
2023-01-22T12:47:19.365Z,18.83
2023-01-22T12:49:51.726Z,17.17
2023-01-22T12:52:35.350Z,19.38
2023-01-22T12:55:05.266Z,16.10
2023-01-22T12:57:41.859Z,17.13
2023-01-22T13:00:46.081Z,15.80
2023-01-22T13:03:33.004Z,17.67
2023-01-22T13:06:01.993Z,19.30
2023-01-22T13:08:43.229Z,19.88
2023-01-22T13:11:13.890Z,20.15
2023-01-22T13:13:52.200Z,21.15
2023-01-22T13:16:21.419Z,20.80
2023-01-22T13:18:53.398Z,20.60
2023-01-22T13:21:38.297Z,19.27
2023-01-22T13:24:17.432Z,17.73
2023-01-22T13:27:07.047Z,15.77
2023-01-22T13:29:37.876Z,21.13
2023-01-22T13:32:16.437Z,21.00
2023-01-22T13:34:43.275Z,24.60
2023-01-22T13:37:28.511Z,23.85
2023-01-22T13:39:55.293Z,24.15
2023-01-22T13:42:24.673Z,27.77
2023-01-22T13:44:52.276Z,27.65
2023-01-22T13:47:34.162Z,27.15
2023-01-22T13:50:02.574Z,24.23
2023-01-22T13:52:29.677Z,29.23
2023-01-22T13:55:05.709Z,23.80
2023-01-22T13:57:32.775Z,23.35
2023-01-22T14:00:01.369Z,26.48
2023-01-22T14:02:34.656Z,25.23
2023-01-22T14:05:02.135Z,24.48
2023-01-22T14:07:30.250Z,26.58
2023-01-22T14:09:59.043Z,23.63
2023-01-22T14:12:27.349Z,25.08
2023-01-22T14:14:54.595Z,33.58
2023-01-22T14:17:24.357Z,26.25
2023-01-22T14:19:51.580Z,30.00
2023-01-22T14:22:18.722Z,27.45
2023-01-22T14:24:45.591Z,28.67
2023-01-22T14:27:12.381Z,28.88
2023-01-22T14:29:39.372Z,30.80
2023-01-22T14:32:06.271Z,25.23
2023-01-22T14:34:33.064Z,25.58
2023-01-22T14:36:59.853Z,30.17
2023-01-22T14:39:26.696Z,27.08
2023-01-22T14:41:53.486Z,29.20
2023-01-22T14:44:20.380Z,28.25
2023-01-22T14:46:47.189Z,24.60
2023-01-22T14:49:14.049Z,37.05
2023-01-22T14:51:41.199Z,27.42
2023-01-22T14:56:52.263Z,27.65
2023-01-22T14:59:20.806Z,29.73
2023-01-22T15:01:47.851Z,22.88
2023-01-22T15:04:14.770Z,28.10
2023-01-22T15:06:41.771Z,24.10
2023-01-22T15:09:08.623Z,25.60
2023-01-22T15:11:35.403Z,25.67
2023-01-22T15:14:04.698Z,30.00
2023-01-22T15:16:32.853Z,31.50
2023-01-22T15:18:59.681Z,31.50
2023-01-22T15:21:26.550Z,34.10
2023-01-22T15:23:53.312Z,37.67
2023-01-22T15:26:24.901Z,29.30
2023-01-22T15:28:51.862Z,33.92
2023-01-22T15:31:18.937Z,41.58
2023-01-22T15:33:46.061Z,43.08
2023-01-22T15:36:12.867Z,39.35
2023-01-22T15:38:39.632Z,45.05
2023-01-22T15:41:28.038Z,53.10
2023-01-22T15:44:00.161Z,46.40
2023-01-22T15:46:32.208Z,42.88
2023-01-22T15:49:00.011Z,49.47
2023-01-22T15:51:28.260Z,43.35
2023-01-22T15:53:57.765Z,49.08
2023-01-22T15:56:26.893Z,49.35
2023-01-22T15:58:54.204Z,71.50
2023-01-22T16:01:22.503Z,47.67
2023-01-22T16:03:49.807Z,45.00
2023-01-22T16:06:19.303Z,53.15
2023-01-22T16:08:47.111Z,52.97
2023-01-22T16:11:15.199Z,40.97
2023-01-22T16:13:42.699Z,70.15
2023-01-22T16:16:33.603Z,62.38
2023-01-22T16:19:01.900Z,62.28
2023-01-22T16:21:29.280Z,48.88
2023-01-22T16:23:58.663Z,78.22
2023-01-22T16:26:30.809Z,104.38
2023-01-22T16:28:59.635Z,57.40
2023-01-22T16:31:30.605Z,45.05
2023-01-22T16:33:59.977Z,60.88
2023-01-22T16:36:29.780Z,45.67
2023-01-22T16:38:56.673Z,63.75
2023-01-22T16:41:36.820Z,63.42
2023-01-22T16:44:16.469Z,50.90
2023-01-22T16:46:48.493Z,47.40
2023-01-22T16:49:18.932Z,45.17
2023-01-22T16:51:48.693Z,40.33
2023-01-22T16:54:29.954Z,43.30
2023-01-22T16:56:59.002Z,52.13
2023-01-22T16:59:27.312Z,47.05
2023-01-22T17:01:56.020Z,59.38
2023-01-22T17:04:23.199Z,37.30
2023-01-22T17:07:15.377Z,38.92
2023-01-22T17:09:47.593Z,47.90
2023-01-22T17:12:14.755Z,41.38
2023-01-22T17:14:41.664Z,49.35
2023-01-22T17:17:09.231Z,48.38
2023-01-22T17:19:36.616Z,39.22
2023-01-22T17:22:04.147Z,44.95
2023-01-22T17:24:31.842Z,39.90
2023-01-22T17:27:04.971Z,49.65
2023-01-22T17:29:33.655Z,50.63
2023-01-22T17:32:02.223Z,43.53
2023-01-22T17:34:29.286Z,54.33
2023-01-22T17:39:50.983Z,61.67
2023-01-22T17:42:18.686Z,47.25
2023-01-22T17:44:45.403Z,45.22
2023-01-22T17:47:12.713Z,51.33
2023-01-22T17:49:39.736Z,38.08
2023-01-22T17:52:09.247Z,47.95
2023-01-22T17:54:36.345Z,55.83
2023-01-22T17:57:05.088Z,44.60
2023-01-22T17:59:32.135Z,71.43
2023-01-22T18:02:00.004Z,51.63
2023-01-22T18:04:27.182Z,47.17
2023-01-22T18:06:54.186Z,45.85
2023-01-22T18:09:22.039Z,58.90
2023-01-22T18:11:49.083Z,40.55
2023-01-22T18:14:21.690Z,44.95
2023-01-22T18:17:14.114Z,44.63
2023-01-22T18:19:40.898Z,39.35
2023-01-22T18:22:07.918Z,43.55
2023-01-22T18:24:36.479Z,62.30
2023-01-22T18:27:03.327Z,53.63
2023-01-22T18:29:30.127Z,41.88
2023-01-22T18:31:56.998Z,45.03
2023-01-22T18:34:24.113Z,44.00
2023-01-22T18:36:51.026Z,60.10
2023-01-22T18:39:19.034Z,47.63
2023-01-22T18:41:47.632Z,54.13
2023-01-22T18:44:16.235Z,45.05
2023-01-22T18:46:47.565Z,36.55
2023-01-22T18:49:17.588Z,47.15
2023-01-22T18:51:45.794Z,48.08
2023-01-22T18:54:12.877Z,61.95
2023-01-22T18:56:40.347Z,53.72
2023-01-22T18:59:07.420Z,79.72
2023-01-22T19:01:38.264Z,59.97
2023-01-22T19:04:08.094Z,53.33
2023-01-22T19:06:38.575Z,63.08
2023-01-22T19:09:08.939Z,64.57
2023-01-22T19:11:38.466Z,42.67
2023-01-22T19:14:07.220Z,49.63
2023-01-22T19:16:34.165Z,37.35
2023-01-22T19:19:04.129Z,45.88
2023-01-22T19:21:31.525Z,45.15
2023-01-22T19:24:00.382Z,57.28
2023-01-22T19:26:33.677Z,47.35
2023-01-22T19:29:06.340Z,42.70
2023-01-22T19:31:36.097Z,51.78
2023-01-22T19:34:04.051Z,51.53
2023-01-22T19:36:33.635Z,48.35
2023-01-22T19:39:05.376Z,48.83
2023-01-22T19:41:32.653Z,40.08
2023-01-22T19:44:01.524Z,42.22
2023-01-22T19:46:28.889Z,55.00
2023-01-22T19:48:56.424Z,47.63
2023-01-22T19:51:24.652Z,49.80
2023-01-22T19:53:51.454Z,50.50
2023-01-22T19:56:21.224Z,43.97
2023-01-22T19:58:48.954Z,45.75
2023-01-22T20:01:16.747Z,38.38
2023-01-22T20:03:44.324Z,50.58
2023-01-22T20:06:13.367Z,29.05
2023-01-22T20:08:40.537Z,42.40
2023-01-22T20:11:09.219Z,31.65
2023-01-22T20:13:37.540Z,30.75
2023-01-22T20:16:05.264Z,42.80
2023-01-22T20:18:33.034Z,52.35
2023-01-22T20:21:01.800Z,70.50
2023-01-22T20:23:29.754Z,35.70
2023-01-22T20:25:58.788Z,25.65
2023-01-22T20:28:25.955Z,39.00
2023-01-22T20:31:01.143Z,35.75
2023-01-22T20:33:28.826Z,40.10
2023-01-22T20:35:57.681Z,31.75
2023-01-22T20:38:24.948Z,42.10
2023-01-22T20:40:52.175Z,54.05
2023-01-22T20:43:19.938Z,37.25
2023-01-22T20:46:01.028Z,52.58
2023-01-22T20:48:29.780Z,53.35
2023-01-22T20:50:57.088Z,45.05
2023-01-22T20:53:24.808Z,43.58
2023-01-22T20:56:03.113Z,44.90
2023-01-22T20:58:30.836Z,34.97
2023-01-22T21:01:07.733Z,66.55
2023-01-22T21:03:35.018Z,38.25
2023-01-22T21:06:04.350Z,34.20
2023-01-22T21:08:31.893Z,46.20
2023-01-22T21:11:00.373Z,19.33
2023-01-22T21:13:27.993Z,34.63
2023-01-22T21:15:55.299Z,34.28
2023-01-22T21:18:23.395Z,33.08
2023-01-22T21:20:50.399Z,43.60
2023-01-22T21:23:17.716Z,54.35
2023-01-22T21:25:44.680Z,44.33
2023-01-22T21:28:11.473Z,39.40
2023-01-22T21:30:39.490Z,52.90
2023-01-22T21:33:06.532Z,46.22
2023-01-22T21:35:33.414Z,47.70
2023-01-22T21:38:00.176Z,56.53
2023-01-22T21:40:26.920Z,49.30
2023-01-22T21:43:12.534Z,35.85
2023-01-22T21:46:01.358Z,31.58
2023-01-22T21:48:29.435Z,43.47
2023-01-22T21:50:56.233Z,34.63
2023-01-22T21:53:23.107Z,30.38
2023-01-22T21:55:53.901Z,45.45
2023-01-22T21:58:21.021Z,40.80
2023-01-22T22:00:48.002Z,18.77
2023-01-22T22:03:16.008Z,34.55
2023-01-22T22:05:43.088Z,28.15
2023-01-22T22:08:09.887Z,31.80
2023-01-22T22:10:36.777Z,34.28
2023-01-22T22:13:03.989Z,31.02
2023-01-22T22:15:30.828Z,29.77
2023-01-22T22:17:57.632Z,52.45
2023-01-22T22:20:24.420Z,37.25
2023-01-22T22:22:51.249Z,36.67
2023-01-22T22:25:18.165Z,31.65
2023-01-22T22:27:45.072Z,31.33
2023-01-22T22:30:12.471Z,31.48
2023-01-22T22:32:39.332Z,42.00
2023-01-22T22:35:06.555Z,31.88
2023-01-22T22:37:33.387Z,40.15
2023-01-22T22:40:00.143Z,35.45
2023-01-22T22:42:27.694Z,53.83
2023-01-22T22:44:54.470Z,46.65
2023-01-22T22:47:21.363Z,35.30
2023-01-22T22:49:48.143Z,25.50
2023-01-22T22:52:15.085Z,41.05
2023-01-22T22:54:41.946Z,36.10
2023-01-22T22:57:08.728Z,36.92
2023-01-22T22:59:35.473Z,20.10
2023-01-22T23:02:02.250Z,24.42
2023-01-22T23:04:29.117Z,30.55
2023-01-22T23:06:55.966Z,24.30
2023-01-22T23:09:22.888Z,23.98
2023-01-22T23:11:53.322Z,28.63
2023-01-22T23:14:20.280Z,41.55
2023-01-22T23:16:47.872Z,33.58
2023-01-22T23:19:26.797Z,27.95
2023-01-22T23:21:56.166Z,44.22
2023-01-22T23:24:23.035Z,36.33
2023-01-22T23:26:50.393Z,24.25
2023-01-22T23:29:20.305Z,49.42
2023-01-22T23:31:49.197Z,21.30
2023-01-22T23:34:18.063Z,25.55
2023-01-22T23:36:46.567Z,16.02
2023-01-22T23:39:15.553Z,18.17
2023-01-22T23:41:42.923Z,15.15
2023-01-22T23:44:10.002Z,18.10
2023-01-22T23:46:36.901Z,12.27
2023-01-22T23:49:04.594Z,11.18
2023-01-22T23:51:31.668Z,15.25
2023-01-22T23:53:58.623Z,14.90
2023-01-22T23:56:32.176Z,14.63
2023-01-22T23:58:59.733Z,14.57
